createdAt,value
2023-05-04T00:00:41.866Z,11.94
2023-05-04T00:03:10.396Z,11.91
2023-05-04T00:05:38.676Z,11.93
2023-05-04T00:08:09.036Z,11.94
2023-05-04T00:10:37.355Z,11.91
2023-05-04T00:13:05.614Z,11.87
2023-05-04T00:15:33.909Z,11.87
2023-05-04T00:18:02.309Z,11.83
2023-05-04T00:20:30.616Z,11.82
2023-05-04T00:22:58.964Z,11.83
2023-05-04T00:25:28.610Z,11.81
2023-05-04T00:27:56.968Z,11.78
2023-05-04T00:30:25.262Z,11.79
2023-05-04T00:32:54.133Z,11.78
2023-05-04T00:35:22.434Z,11.78
2023-05-04T00:37:51.228Z,11.77
2023-05-04T00:40:19.511Z,11.76
2023-05-04T00:42:49.249Z,11.76
2023-05-04T00:45:17.607Z,11.76
2023-05-04T00:47:46.016Z,11.73
2023-05-04T00:50:14.360Z,11.69
2023-05-04T00:52:44.768Z,11.64
2023-05-04T00:55:14.508Z,11.60
2023-05-04T00:57:43.404Z,11.58
2023-05-04T01:00:14.200Z,11.60
2023-05-04T01:02:42.787Z,11.60
2023-05-04T01:05:12.511Z,11.59
2023-05-04T01:07:53.183Z,11.55
2023-05-04T01:10:25.464Z,11.53
2023-05-04T01:12:59.208Z,11.48
2023-05-04T01:15:29.636Z,11.45
2023-05-04T01:17:57.989Z,11.44
2023-05-04T01:20:26.278Z,11.42
2023-05-04T01:22:56.280Z,11.41
2023-05-04T01:25:28.376Z,11.38
2023-05-04T01:28:01.014Z,11.34
2023-05-04T01:30:33.558Z,11.31
2023-05-04T01:33:02.458Z,11.31
2023-05-04T01:35:31.230Z,11.26
2023-05-04T01:38:01.291Z,11.26
2023-05-04T01:40:29.552Z,11.23
2023-05-04T01:42:58.005Z,11.20
2023-05-04T01:45:26.287Z,11.18
2023-05-04T01:47:54.711Z,11.18
2023-05-04T01:50:23.029Z,11.15
2023-05-04T01:52:51.328Z,11.14
2023-05-04T01:55:21.095Z,11.13
2023-05-04T01:57:49.435Z,11.15
2023-05-04T02:00:18.353Z,11.13
2023-05-04T02:02:46.695Z,11.12
2023-05-04T02:05:19.215Z,11.09
2023-05-04T02:07:47.552Z,11.07
2023-05-04T02:10:16.225Z,11.03
2023-05-04T02:12:46.420Z,11.02
2023-05-04T02:15:15.003Z,11.02
2023-05-04T02:17:44.495Z,11.04
2023-05-04T02:20:14.005Z,11.01
2023-05-04T02:22:46.525Z,11.00
2023-05-04T02:25:14.819Z,11.02
2023-05-04T02:27:43.152Z,11.03
2023-05-04T02:30:14.747Z,11.04
2023-05-04T02:32:43.169Z,11.07
2023-05-04T02:35:11.547Z,11.09
2023-05-04T02:37:39.902Z,11.05
2023-05-04T02:40:09.670Z,11.09
2023-05-04T02:42:37.975Z,11.13
2023-05-04T02:45:07.699Z,11.15
2023-05-04T02:47:37.542Z,11.20
2023-05-04T02:50:07.231Z,11.24
2023-05-04T02:52:35.817Z,11.29
2023-05-04T02:55:04.167Z,11.36
2023-05-04T02:57:32.637Z,11.37
2023-05-04T03:00:00.897Z,11.39
2023-05-04T03:02:29.264Z,11.43
2023-05-04T03:04:59.006Z,11.46
2023-05-04T03:07:27.702Z,11.49
2023-05-04T03:09:56.047Z,11.51
2023-05-04T03:12:25.616Z,11.53
2023-05-04T03:14:53.936Z,11.56
2023-05-04T03:17:22.278Z,11.57
2023-05-04T03:19:50.551Z,11.61
2023-05-04T03:22:20.699Z,11.63
2023-05-04T03:24:49.076Z,11.66
2023-05-04T03:27:18.456Z,11.67
2023-05-04T03:29:47.593Z,11.70
2023-05-04T03:32:16.774Z,11.74
2023-05-04T03:34:45.927Z,11.75
2023-05-04T03:37:15.203Z,11.76
2023-05-04T03:39:44.905Z,11.76
2023-05-04T03:42:13.191Z,11.73
2023-05-04T03:44:42.283Z,11.74
2023-05-04T03:47:10.804Z,11.75
2023-05-04T03:49:39.227Z,11.79
2023-05-04T03:52:07.916Z,11.78
2023-05-04T03:54:36.924Z,11.82
2023-05-04T03:57:06.725Z,11.85
2023-05-04T03:59:36.764Z,11.89
2023-05-04T04:02:07.247Z,11.89
2023-05-04T04:04:35.831Z,11.91
2023-05-04T04:07:04.106Z,11.94
2023-05-04T04:09:32.757Z,11.94
2023-05-04T04:12:01.065Z,11.94
2023-05-04T04:14:31.127Z,12.02
2023-05-04T04:16:59.407Z,12.06
2023-05-04T04:19:27.950Z,12.05
2023-05-04T04:21:58.315Z,12.11
2023-05-04T04:24:26.593Z,12.12
2023-05-04T04:26:55.090Z,12.17
2023-05-04T04:29:23.356Z,12.16
2023-05-04T04:31:53.009Z,12.21
2023-05-04T04:34:21.361Z,12.22
2023-05-04T04:36:49.947Z,12.30
2023-05-04T04:39:18.336Z,12.35
2023-05-04T04:41:46.673Z,12.42
2023-05-04T04:44:15.061Z,12.45
2023-05-04T04:46:44.715Z,12.50
2023-05-04T04:49:14.465Z,12.53
2023-05-04T04:51:42.664Z,12.60
2023-05-04T04:54:11.382Z,12.69
2023-05-04T04:56:40.626Z,12.65
2023-05-04T04:59:10.716Z,12.70
2023-05-04T05:01:39.075Z,12.80
2023-05-04T05:04:07.710Z,12.87
2023-05-04T05:06:37.867Z,12.91
2023-05-04T05:09:06.202Z,12.86
2023-05-04T05:11:34.484Z,12.97
2023-05-04T05:14:02.739Z,13.03
2023-05-04T05:16:31.133Z,13.04
2023-05-04T05:18:59.424Z,13.08
2023-05-04T05:21:27.776Z,13.12
2023-05-04T05:23:57.514Z,13.14
2023-05-04T05:26:25.970Z,13.18
2023-05-04T05:28:54.364Z,13.18
2023-05-04T05:31:22.766Z,13.21
2023-05-04T05:33:51.103Z,13.24
2023-05-04T05:36:19.390Z,13.34
2023-05-04T05:38:49.733Z,13.34
2023-05-04T05:41:20.148Z,13.52
2023-05-04T05:43:48.405Z,13.64
2023-05-04T05:46:16.706Z,13.78
2023-05-04T05:48:45.040Z,13.85
2023-05-04T05:51:13.383Z,13.89
2023-05-04T05:53:42.841Z,13.90
2023-05-04T05:56:11.145Z,13.97
2023-05-04T05:58:41.026Z,14.00
2023-05-04T06:01:09.324Z,14.03
2023-05-04T06:03:37.815Z,13.97
2023-05-04T06:06:06.464Z,14.04
2023-05-04T06:08:34.908Z,14.18
2023-05-04T06:11:03.227Z,14.25
2023-05-04T06:13:31.477Z,14.35
2023-05-04T06:16:01.307Z,14.49
2023-05-04T06:18:29.647Z,14.54
2023-05-04T06:21:01.362Z,14.63
2023-05-04T06:23:30.161Z,14.70
2023-05-04T06:25:58.618Z,14.71
2023-05-04T06:28:26.983Z,14.71
2023-05-04T06:30:55.290Z,14.79
2023-05-04T06:33:25.000Z,14.85
2023-05-04T06:35:53.940Z,14.97
2023-05-04T06:38:22.490Z,15.07
2023-05-04T06:40:51.025Z,15.19
2023-05-04T06:43:19.265Z,15.30
2023-05-04T06:45:47.650Z,15.29
2023-05-04T06:48:15.964Z,15.46
2023-05-04T06:50:45.678Z,15.53
2023-05-04T06:53:13.977Z,15.58
2023-05-04T06:55:42.327Z,15.77
2023-05-04T06:58:10.576Z,15.83
2023-05-04T07:00:38.860Z,16.03
2023-05-04T07:03:07.173Z,16.22
2023-05-04T07:05:38.164Z,16.35
2023-05-04T07:08:09.871Z,16.49
2023-05-04T07:10:42.284Z,16.71
2023-05-04T07:13:11.218Z,16.92
2023-05-04T07:15:40.208Z,17.09
2023-05-04T07:18:08.665Z,17.35
2023-05-04T07:20:37.379Z,17.65
2023-05-04T07:23:07.184Z,17.98
2023-05-04T07:25:35.636Z,18.03
2023-05-04T07:28:07.273Z,18.20
2023-05-04T07:30:35.384Z,18.48
2023-05-04T07:33:03.447Z,18.62
2023-05-04T07:35:31.519Z,18.67
2023-05-04T07:37:59.536Z,18.74
2023-05-04T07:40:28.995Z,18.94
2023-05-04T07:42:57.156Z,19.06
2023-05-04T07:45:28.188Z,19.20
2023-05-04T07:47:56.383Z,19.35
2023-05-04T07:50:24.505Z,19.50
2023-05-04T07:52:52.574Z,19.72
2023-05-04T07:55:20.756Z,20.06
2023-05-04T07:57:50.150Z,20.18
2023-05-04T08:00:19.884Z,20.04
2023-05-04T08:02:48.225Z,19.97
2023-05-04T08:05:16.450Z,20.02
2023-05-04T08:07:47.316Z,20.10
2023-05-04T08:10:15.389Z,20.24
2023-05-04T08:12:44.069Z,20.47
2023-05-04T08:15:14.752Z,20.73
2023-05-04T08:17:42.864Z,21.05
2023-05-04T08:20:11.465Z,20.96
2023-05-04T08:22:41.679Z,21.07
2023-05-04T08:25:12.678Z,21.23
2023-05-04T08:27:41.177Z,21.40
2023-05-04T08:30:10.186Z,21.42
2023-05-04T08:32:40.122Z,21.43
2023-05-04T08:35:08.618Z,21.43
2023-05-04T08:37:36.886Z,21.53
2023-05-04T08:40:05.875Z,21.81
2023-05-04T08:42:34.722Z,21.94
2023-05-04T08:45:02.921Z,21.83
2023-05-04T08:47:31.204Z,21.96
2023-05-04T08:50:01.117Z,22.20
2023-05-04T08:52:29.697Z,22.18
2023-05-04T08:54:58.789Z,22.26
2023-05-04T08:57:27.663Z,22.17
2023-05-04T08:59:56.621Z,22.20
2023-05-04T09:02:26.118Z,22.24
2023-05-04T09:04:55.366Z,22.26
2023-05-04T09:07:24.791Z,22.54
2023-05-04T09:09:53.411Z,22.93
2023-05-04T09:12:21.436Z,23.24
2023-05-04T09:14:49.501Z,23.45
2023-05-04T09:17:25.732Z,23.56
2023-05-04T09:20:01.274Z,23.57
2023-05-04T09:22:31.456Z,23.57
2023-05-04T09:25:11.394Z,23.49
2023-05-04T09:27:41.445Z,23.42
2023-05-04T09:30:14.672Z,23.54
2023-05-04T09:32:47.301Z,23.79
2023-05-04T09:35:25.702Z,23.69
2023-05-04T09:38:02.243Z,23.50
2023-05-04T09:40:34.461Z,23.70
2023-05-04T09:43:06.680Z,23.83
2023-05-04T09:45:41.335Z,23.98
2023-05-04T09:48:20.103Z,24.14
2023-05-04T09:50:55.647Z,24.26
2023-05-04T09:53:26.553Z,24.51
2023-05-04T09:56:11.365Z,24.29
2023-05-04T09:58:40.304Z,24.20
2023-05-04T10:01:10.447Z,24.10
2023-05-04T10:03:39.054Z,24.38
2023-05-04T10:06:09.257Z,24.46
2023-05-04T10:08:40.160Z,24.61
2023-05-04T10:11:09.145Z,24.66
2023-05-04T10:13:37.476Z,24.82
2023-05-04T10:16:32.932Z,25.09
2023-05-04T10:19:39.222Z,25.30
2023-05-04T10:22:27.713Z,25.56
2023-05-04T10:25:19.744Z,25.60
2023-05-04T10:27:58.620Z,25.57
2023-05-04T10:30:27.174Z,25.80
2023-05-04T10:33:02.236Z,26.03
2023-05-04T10:35:30.588Z,26.31
2023-05-04T10:37:59.199Z,26.62
2023-05-04T10:40:37.944Z,26.99
2023-05-04T10:43:06.503Z,27.00
2023-05-04T10:45:38.837Z,26.96
2023-05-04T10:48:09.599Z,27.10
2023-05-04T10:50:45.128Z,26.97
2023-05-04T10:53:13.733Z,26.99
2023-05-04T10:55:42.835Z,26.37
2023-05-04T10:58:14.967Z,26.51
2023-05-04T11:00:45.986Z,26.73
2023-05-04T11:03:23.613Z,26.95
2023-05-04T11:05:54.800Z,26.99
2023-05-04T11:08:32.104Z,26.97
2023-05-04T11:11:03.407Z,26.79
2023-05-04T11:13:36.431Z,26.68
2023-05-04T11:16:04.970Z,26.76
2023-05-04T11:18:37.480Z,26.82
2023-05-04T11:21:06.187Z,27.24
2023-05-04T11:23:34.763Z,27.39
2023-05-04T11:26:07.929Z,26.99
2023-05-04T11:28:38.322Z,27.21
2023-05-04T11:31:17.273Z,27.67
2023-05-04T11:33:48.293Z,27.81
2023-05-04T11:36:17.778Z,28.47
2023-05-04T11:38:46.269Z,29.09
2023-05-04T11:41:14.615Z,28.85
2023-05-04T11:43:45.424Z,28.97
2023-05-04T11:46:14.243Z,29.09
2023-05-04T11:48:42.988Z,29.24
2023-05-04T11:51:12.906Z,29.09
2023-05-04T11:53:42.995Z,29.18
2023-05-04T11:56:11.501Z,28.62
2023-05-04T11:58:39.911Z,28.30
2023-05-04T12:01:08.276Z,28.16
2023-05-04T12:03:53.222Z,28.04
2023-05-04T12:06:34.173Z,27.52
2023-05-04T12:09:06.908Z,27.67
2023-05-04T12:11:38.407Z,28.10
2023-05-04T12:14:09.716Z,28.06
2023-05-04T12:16:38.491Z,28.38
2023-05-04T12:19:10.834Z,28.32
2023-05-04T12:21:52.579Z,28.58
2023-05-04T12:24:22.797Z,28.83
2023-05-04T12:26:51.245Z,28.91
2023-05-04T12:29:19.592Z,28.67
2023-05-04T12:31:47.964Z,28.82
2023-05-04T12:34:16.318Z,28.98
2023-05-04T12:36:46.358Z,29.33
2023-05-04T12:39:14.781Z,29.57
2023-05-04T12:41:43.074Z,29.70
2023-05-04T12:44:14.336Z,29.47
2023-05-04T12:46:43.204Z,29.46
2023-05-04T12:49:11.936Z,29.56
2023-05-04T12:51:40.222Z,29.39
2023-05-04T12:54:09.849Z,29.41
2023-05-04T12:56:39.768Z,29.90
2023-05-04T12:59:08.066Z,30.05
2023-05-04T13:01:36.440Z,29.91
2023-05-04T13:04:04.718Z,30.18
2023-05-04T13:06:33.017Z,30.27
2023-05-04T13:09:03.956Z,30.12
2023-05-04T13:11:33.666Z,29.88
2023-05-04T13:14:02.232Z,29.32
2023-05-04T13:16:30.803Z,29.09
2023-05-04T13:18:59.358Z,28.79
2023-05-04T13:21:27.605Z,28.87
2023-05-04T13:23:57.467Z,28.88
2023-05-04T13:26:25.921Z,29.11
2023-05-04T13:28:55.516Z,28.87
2023-05-04T13:31:23.653Z,28.98
2023-05-04T13:33:51.927Z,29.19
2023-05-04T13:36:20.105Z,29.47
2023-05-04T13:38:48.522Z,29.56
2023-05-04T13:41:16.611Z,29.54
2023-05-04T13:43:44.637Z,29.74
2023-05-04T13:46:14.129Z,29.89
2023-05-04T13:48:43.816Z,30.02
2023-05-04T13:51:12.361Z,29.80
2023-05-04T13:53:40.459Z,29.59
2023-05-04T13:56:08.563Z,29.46
2023-05-04T13:58:36.624Z,29.26
2023-05-04T14:01:04.708Z,28.94
2023-05-04T14:03:34.124Z,28.63
2023-05-04T14:06:02.140Z,28.33
2023-05-04T14:08:30.152Z,28.39
2023-05-04T14:10:58.719Z,28.41
2023-05-04T14:13:26.771Z,28.44
2023-05-04T14:15:54.773Z,28.38
2023-05-04T14:18:22.796Z,28.18
2023-05-04T14:20:52.239Z,28.28
2023-05-04T14:23:20.352Z,28.41
2023-05-04T14:25:51.625Z,28.53
2023-05-04T14:28:19.740Z,28.68
2023-05-04T14:30:47.739Z,28.65
2023-05-04T14:33:15.826Z,28.40
2023-05-04T14:35:48.020Z,28.24
2023-05-04T14:38:18.049Z,28.04
2023-05-04T14:40:48.356Z,27.90
2023-05-04T14:43:17.552Z,27.78
2023-05-04T14:45:45.668Z,27.59
2023-05-04T14:48:13.719Z,27.36
2023-05-04T14:50:42.569Z,27.19
2023-05-04T14:53:10.828Z,27.28
2023-05-04T14:55:41.981Z,27.38
2023-05-04T14:58:10.383Z,27.58
2023-05-04T15:00:38.949Z,27.72
2023-05-04T15:03:07.626Z,27.83
2023-05-04T15:05:35.802Z,28.00
2023-05-04T15:08:04.255Z,27.99
2023-05-04T15:10:32.317Z,27.86
2023-05-04T15:13:03.262Z,27.76
2023-05-04T15:15:31.367Z,27.68
2023-05-04T15:17:59.434Z,27.50
2023-05-04T15:20:27.695Z,27.43
2023-05-04T15:22:55.817Z,27.37
2023-05-04T15:25:25.165Z,27.54
2023-05-04T15:27:53.316Z,27.80
2023-05-04T15:30:23.436Z,28.06
2023-05-04T15:32:51.760Z,28.18
2023-05-04T15:35:20.022Z,28.20
2023-05-04T15:37:48.112Z,28.12
2023-05-04T15:40:16.245Z,27.99
2023-05-04T15:42:44.322Z,27.99
2023-05-04T15:45:12.502Z,27.81
2023-05-04T15:47:42.287Z,27.71
2023-05-04T15:50:10.791Z,27.58
2023-05-04T15:52:39.630Z,27.57
2023-05-04T15:55:23.478Z,27.40
2023-05-04T15:57:54.437Z,27.22
2023-05-04T16:00:22.982Z,27.14
2023-05-04T16:02:52.594Z,27.19
2023-05-04T16:05:21.453Z,27.12
2023-05-04T16:07:49.564Z,27.21
2023-05-04T16:10:17.791Z,27.19
2023-05-04T16:12:45.883Z,26.99
2023-05-04T16:15:14.495Z,26.97
2023-05-04T16:17:42.551Z,26.98
2023-05-04T16:20:12.869Z,26.99
2023-05-04T16:22:40.959Z,26.96
2023-05-04T16:25:11.172Z,26.69
2023-05-04T16:27:40.761Z,26.34
2023-05-04T16:30:10.371Z,26.23
2023-05-04T16:32:38.853Z,26.18
2023-05-04T16:35:08.202Z,26.13
2023-05-04T16:37:38.674Z,26.01
2023-05-04T16:40:11.424Z,25.96
2023-05-04T16:42:39.616Z,25.93
2023-05-04T16:45:08.686Z,25.97
2023-05-04T16:47:37.010Z,26.06
2023-05-04T16:50:06.709Z,26.02
2023-05-04T16:52:34.911Z,25.94
2023-05-04T16:55:04.690Z,25.90
2023-05-04T16:57:33.022Z,25.88
2023-05-04T17:00:01.768Z,25.74
2023-05-04T17:02:30.018Z,25.56
2023-05-04T17:04:58.462Z,25.47
2023-05-04T17:07:26.785Z,25.43
2023-05-04T17:09:55.559Z,25.35
2023-05-04T17:12:24.952Z,25.32
2023-05-04T17:14:53.068Z,25.28
2023-05-04T17:17:21.121Z,25.25
2023-05-04T17:19:50.326Z,25.18
2023-05-04T17:22:18.592Z,25.17
2023-05-04T17:24:46.741Z,25.17
2023-05-04T17:27:14.817Z,25.12
2023-05-04T17:29:44.659Z,25.04
2023-05-04T17:32:12.785Z,25.03
2023-05-04T17:34:42.174Z,24.97
2023-05-04T17:37:10.302Z,24.92
2023-05-04T17:39:38.404Z,24.94
2023-05-04T17:42:07.193Z,24.88
2023-05-04T17:44:35.337Z,24.74
2023-05-04T17:47:04.889Z,24.69
2023-05-04T17:49:32.927Z,24.58
2023-05-04T17:52:01.494Z,24.46
2023-05-04T17:54:29.655Z,24.41
2023-05-04T17:56:57.691Z,24.30
2023-05-04T17:59:25.793Z,24.24
2023-05-04T18:01:53.905Z,24.17
2023-05-04T18:04:23.496Z,24.09
2023-05-04T18:06:51.540Z,24.01
2023-05-04T18:09:19.790Z,23.96
2023-05-04T18:11:48.612Z,23.95
2023-05-04T18:14:16.794Z,23.85
2023-05-04T18:16:44.955Z,23.75
2023-05-04T18:19:13.154Z,23.66
2023-05-04T18:21:42.767Z,23.59
2023-05-04T18:24:10.893Z,23.52
2023-05-04T18:26:38.943Z,23.45
2023-05-04T18:29:17.763Z,23.38
2023-05-04T18:31:47.317Z,23.26
2023-05-04T18:34:15.580Z,23.17
2023-05-04T18:36:46.021Z,23.09
2023-05-04T18:39:15.644Z,23.00
2023-05-04T18:41:43.747Z,22.91
2023-05-04T18:44:18.186Z,22.81
2023-05-04T18:46:46.347Z,22.72
2023-05-04T18:49:15.693Z,22.63
2023-05-04T18:51:45.148Z,22.52
2023-05-04T18:54:15.272Z,22.40
2023-05-04T18:56:43.376Z,22.34
2023-05-04T18:59:11.834Z,22.25
2023-05-04T19:01:40.089Z,22.18
2023-05-04T19:04:08.218Z,22.10
2023-05-04T19:06:36.262Z,21.96
2023-05-04T19:09:06.710Z,21.91
2023-05-04T19:11:34.846Z,21.84
2023-05-04T19:14:03.021Z,21.78
2023-05-04T19:16:31.195Z,21.72
2023-05-04T19:18:59.542Z,21.66
2023-05-04T19:21:28.575Z,21.58
2023-05-04T19:23:56.841Z,21.53
2023-05-04T19:26:26.394Z,21.46
2023-05-04T19:28:54.488Z,21.38
2023-05-04T19:31:22.743Z,21.32
2023-05-04T19:33:52.198Z,21.28
2023-05-04T19:36:20.257Z,21.22
2023-05-04T19:38:48.368Z,21.19
2023-05-04T19:41:16.470Z,21.16
2023-05-04T19:43:46.109Z,21.11
2023-05-04T19:46:38.884Z,21.05
2023-05-04T19:49:35.529Z,20.94
2023-05-04T19:52:12.662Z,20.86
2023-05-04T19:54:55.787Z,20.87
2023-05-04T19:58:08.556Z,20.84
2023-05-04T20:00:43.301Z,20.76
2023-05-04T20:03:14.085Z,20.77
2023-05-04T20:05:45.833Z,20.74
2023-05-04T20:08:25.166Z,20.66
2023-05-04T20:10:54.773Z,20.64
2023-05-04T20:13:23.307Z,20.63
2023-05-04T20:15:53.062Z,20.57
2023-05-04T20:18:21.218Z,20.53
2023-05-04T20:20:56.716Z,20.45
2023-05-04T20:23:33.787Z,20.37
2023-05-04T20:26:07.329Z,20.27
2023-05-04T20:28:43.068Z,20.20
2023-05-04T20:31:36.956Z,20.16
2023-05-04T20:34:11.480Z,20.17
2023-05-04T20:36:41.034Z,20.14
2023-05-04T20:39:16.476Z,20.07
2023-05-04T20:41:57.966Z,20.05
2023-05-04T20:44:27.904Z,19.96
2023-05-04T20:47:02.951Z,19.90
2023-05-04T20:49:55.006Z,19.82
2023-05-04T20:52:42.833Z,19.81
2023-05-04T20:55:46.796Z,19.73
2023-05-04T20:58:20.370Z,19.73
2023-05-04T21:00:52.317Z,19.59
2023-05-04T21:03:42.441Z,19.40
2023-05-04T21:06:19.958Z,19.32
2023-05-04T21:08:51.913Z,19.29
2023-05-04T21:11:27.244Z,19.25
2023-05-04T21:13:55.594Z,19.12
2023-05-04T21:16:26.245Z,19.08
2023-05-04T21:18:55.873Z,19.01
2023-05-04T21:21:23.970Z,18.95
2023-05-04T21:23:52.111Z,18.88
2023-05-04T21:26:25.519Z,18.80
2023-05-04T21:28:53.690Z,18.76
2023-05-04T21:31:21.891Z,18.68
2023-05-04T21:33:55.309Z,18.62
2023-05-04T21:36:29.376Z,18.53
2023-05-04T21:38:57.580Z,18.50
2023-05-04T21:41:27.519Z,18.50
2023-05-04T21:43:56.304Z,18.43
2023-05-04T21:46:26.592Z,18.39
2023-05-04T21:48:54.859Z,18.38
2023-05-04T21:51:24.388Z,18.35
2023-05-04T21:53:52.556Z,18.33
2023-05-04T21:56:21.185Z,18.28
2023-05-04T21:58:49.320Z,18.25
2023-05-04T22:01:18.393Z,18.22
2023-05-04T22:03:47.004Z,18.14
2023-05-04T22:06:15.643Z,18.10
2023-05-04T22:08:45.154Z,18.09
2023-05-04T22:11:13.353Z,18.05
2023-05-04T22:13:42.659Z,18.03
2023-05-04T22:16:10.900Z,17.98
2023-05-04T22:18:39.593Z,17.99
2023-05-04T22:21:09.718Z,17.97
2023-05-04T22:23:37.885Z,17.87
2023-05-04T22:26:07.479Z,17.88
2023-05-04T22:28:35.674Z,17.88
2023-05-04T22:31:03.864Z,17.84
2023-05-04T22:33:32.017Z,17.79
2023-05-04T22:36:00.199Z,17.75
2023-05-04T22:38:28.260Z,17.76
2023-05-04T22:40:56.312Z,17.66
2023-05-04T22:43:25.782Z,17.63
2023-05-04T22:45:56.600Z,17.60
2023-05-04T22:48:25.684Z,17.59
2023-05-04T22:50:54.974Z,17.55
2023-05-04T22:53:23.418Z,17.56
2023-05-04T22:55:51.710Z,17.54
2023-05-04T22:58:19.826Z,17.51
2023-05-04T23:00:49.303Z,17.53
2023-05-04T23:03:17.770Z,17.45
2023-05-04T23:05:46.073Z,17.43
2023-05-04T23:08:14.399Z,17.37
2023-05-04T23:10:45.729Z,17.30
2023-05-04T23:13:14.302Z,17.28
2023-05-04T23:15:42.450Z,17.16
2023-05-04T23:18:12.883Z,17.15
2023-05-04T23:20:41.040Z,17.15
2023-05-04T23:23:09.088Z,17.11
2023-05-04T23:25:37.341Z,17.20
2023-05-04T23:28:05.696Z,17.07
2023-05-04T23:30:33.756Z,17.05
2023-05-04T23:33:01.896Z,16.95
2023-05-04T23:35:31.329Z,16.88
2023-05-04T23:37:59.414Z,16.93
2023-05-04T23:40:27.435Z,16.84
2023-05-04T23:42:55.434Z,16.78
2023-05-04T23:45:23.557Z,16.86
2023-05-04T23:47:51.688Z,16.81
2023-05-04T23:50:19.970Z,16.76
2023-05-04T23:52:49.629Z,16.81
2023-05-04T23:55:18.032Z,16.78
2023-05-04T23:57:46.635Z,16.73
